Rochester, NY

7:42 PM EDT on September 28, 2016 (GMT -0400)
Portsmouth & University, NOTA | | Change Station

Elev 502 ft 43.15 °N, 77.58 °W | Updated 15 seconds ago

Mostly Cloudy
Mostly Cloudy
67.1 °F
Feels Like 67.1 °F
N
7.0
Wind Variable Wind from ESE

Today
High -- | Low -- °F
--% Chance of Precip.
Yesterday
High -- | Low -- °F
Precip. -- in
Pressure 30.12 in
Visibility 10.0 miles
Clouds Few 4000 ft
Few 6000 ft
Mostly Cloudy 10000 ft
Dew Point 54 °F
Humidity 65%
Rainfall 0.00 in
Snow Depth Not available.
7:04 AM 6:56 PM
Waning Crescent, 4% visible
METAR KROC 282254Z 10013KT 10SM FEW040 FEW060 BKN100 21/13 A3010 RMK AO2 SLP197 T02060128
Pressure 30.12 in
Visibility 10.0 miles
Clouds Few 4000 ft
Few 6000 ft
Mostly Cloudy 10000 ft
Dew Point 54 °F
Humidity 65%
Rainfall 0.00 in
Snow Depth Not available.
7:04 AM 6:56 PM
Waning Crescent, 4% visible
METAR KROC 282254Z 10013KT 10SM FEW040 FEW060 BKN100 21/13 A3010 RMK AO2 SLP197 T02060128

10-Day Weather Forecast

Almanac

Astronomy

Sep. 28, 2016 Rise Set
Actual Time
Civil Twilight
Nautical Twilight
Astronomical Twilight
Moon
Length of Visible Light
Length of Day
Tomorrow will be .
, % of the Moon is Illuminated

Today's Extremes

State Highs State Lows

Community

WunderPhotos

Upload Photos

1,942,354 photos uploaded!

WunderBlog® & News

Nearby

Air Quality

  Air Quality AQ Index Pollutant
Not available.

Snow Depth

Station Depth Elevation

Earthquake Activity

City Distance Mag. Time & Date
Minimum magnitude displayed is 2.5.

Coastal Water Temperatures

Place Temperature

Stations

Nearby Weather Stations

Station Location Temp. Windchill Dew Point Humidity Wind Precip. Elev Updated Type
                   

Watches & Warnings

There are currently no watches in effect.